Météo Laillé La Rouesnais (35890),Prévisions Météo 3 et 7 jours Observations temps réel,historique,bilan climatique
Photo de Laille
.//Meteo-Laille_Data_Jour.txt https://tgftp.nws.noaa.gov/data/observations/metar/stations/LFRN.TXT2022/08/15 16:30 LFRN 151630Z AUTO 21010KT 190V250 9999 FEW039/// BKN098/// BKN130/// ///CB 25/16 Q1006 TEMPO SHRA BECMG SCT020
Rennes
Orageux
Metar : 2022/08/15 16:30 LFRN 151630Z AUTO 21010KT 190V250 9999 FEW039/// BKN098/// BKN130/// ///CB 25/16 Q1006 TEMPO SHRA BECMG SCT020
Couverture nuageuse : Few Clouds 3900 ft Mostly Cloudy 9800 ft Mostly Cloudy 13000 ft
Pression de 29.71 inHg (1006 hPa)
Humidité : 57%
Température : 77°F (25°C)
Vent de SSW at 12 mph (19 km/h)
Visibilité : 6 miles (10 km)
Nantes
nuageux
Metar : 2022/08/15 16:30 LFRS 151630Z AUTO 21010KT 180V240 9999 SCT043 BKN190 23/16 Q1007 NOSIG
Couverture nuageuse : Partly Cloudy 4300 ft Mostly Cloudy 19000 ft
Traduc : Partly cloudy 700 ft
Pression de 29.74 inHg (1007 hPa)
Humidité : 65%
Température : 73°F (23°C)
Point de rosée : 61°F (16°C)
Vent de SSW at 12 mph (19 km/h)
Visibilité : 6 miles (10 km)
Lannion
nuageux
Metar : 2022/08/15 16:30 LFRO 151630Z AUTO 27005KT 240V310 9999 FEW039 BKN094 BKN120 22/17 Q1005
Couverture nuageuse : Few Clouds 3900 ft Mostly Cloudy 9400 ft Mostly Cloudy 12000 ft
Traduc : Partly cloudy 700 ft
Pression de 29.68 inHg (1005 hPa)
Humidité : 73%
Température : 72°F (22°C)
Point de rosée : 63°F (17°C)
Vent de W at 6 mph (9 km/h)
Visibilité : 6 miles (10 km)
Dinard
Brume, couvert
Metar : 2022/08/15 03:30 LFRD 150330Z AUTO 21004KT 4500 BR OVC014 16/15 Q1004 TEMPO BKN008
Couverture nuageuse : Overcast 1400 ft
Traduc : Partly cloudy 700 ft
Pression de 29.65 inHg (1004 hPa)
Humidité : 94%
Température : 61°F (16°C)
Point de rosée : 59°F (15°C)
Vent de SSW at 5 mph (7 km/h)
Visibilité : 3 miles (5 km)
Brest
nuageux
Metar : 2022/08/15 16:30 LFRB 151630Z AUTO 21011KT 9999 SCT014 BKN021 BKN120 20/17 Q1006 NOSIG
Couverture nuageuse : Partly Cloudy 1400 ft Mostly Cloudy 2100 ft Mostly Cloudy 12000 ft
Traduc : Partly cloudy 700 ft
Pression de 29.71 inHg (1006 hPa)
Humidité : 83%
Température : 68°F (20°C)
Point de rosée : 63°F (17°C)
Vent de SSW at 13 mph (20 km/h)
Visibilité : 6 miles (10 km)
Quimper
nuageux
Metar : 2022/08/15 16:30 LFRQ 151630Z AUTO 21008KT 180V240 9999 SCT014 BKN120 20/17 Q1006 NOSIG
Couverture nuageuse : Partly Cloudy 1400 ft Mostly Cloudy 12000 ft
Traduc : Partly cloudy 700 ft
Pression de 29.71 inHg (1006 hPa)
Humidité : 83%
Température : 68°F (20°C)
Point de rosée : 63°F (17°C)
Vent de SSW at 9 mph (15 km/h)
Visibilité : 6 miles (10 km)
St Nazaire
couvert
Metar : 2022/08/15 16:30 LFRZ 151630Z AUTO 21012KT 9999 FEW036 BKN130 OVC190 22/17 Q1007 NOSIG
Couverture nuageuse : Few Clouds 3600 ft Mostly Cloudy 13000 ft Overcast 19000 ft
Traduc : Partly cloudy 700 ft
Pression de 29.74 inHg (1007 hPa)
Humidité : 73%
Température : 72°F (22°C)
Point de rosée : 63°F (17°C)
Vent de SSW at 14 mph (22 km/h)
Visibilité : 6 miles (10 km)
St Brieuc
Orageux
Metar : 2022/08/15 16:30 LFRT 151630Z AUTO 00000KT 9999 SCT040/// SCT050/// BKN062/// ///CB 21/17 Q1005
Couverture nuageuse : Partly Cloudy 4000 ft Partly Cloudy 5000 ft Mostly Cloudy 6200 ft
Traduc : Partly cloudy 700 ft
Pression de 29.68 inHg (1005 hPa)
Humidité : 78%
Température : 70°F (21°C)
Point de rosée : 63°F (17°C)
Vent de calm
Visibilité : 6 miles (10 km)
Lorient
Orageux
Metar : 2022/08/15 16:30 LFRH 151630Z AUTO 22008KT 9999 SCT010/// BKN021/// BKN026/// ///TCU 20/17 Q1007 BECMG SCT015 BKN100
Couverture nuageuse : Partly Cloudy 1000 ft Mostly Cloudy 2100 ft Mostly Cloudy 2600 ft
Traduc : Partly cloudy 700 ft
Pression de 29.74 inHg (1007 hPa)
Humidité : 83%
Température : 68°F (20°C)
Point de rosée : 63°F (17°C)
Vent de SW at 9 mph (15 km/h)
Visibilité : 6 miles (10 km)
Vannes-Meucon
nuageux
Metar : 2022/08/15 16:30 LFRV 151630Z AUTO 20007KT 170V240 9999 BKN015 BKN026 BKN140 21/17 Q1007
Couverture nuageuse : Mostly Cloudy 1500 ft Mostly Cloudy 2600 ft Mostly Cloudy 14000 ft
Traduc : Partly cloudy 700 ft
Pression de 29.74 inHg (1007 hPa)
Humidité : 78%
Température : 70°F (21°C)
Point de rosée : 63°F (17°C)
Vent de SSW at 8 mph (13 km/h)
Visibilité : 6 miles (10 km)
St Nazaire
couvert
Metar : 2022/08/15 16:30 LFRZ 151630Z AUTO 21012KT 9999 FEW036 BKN130 OVC190 22/17 Q1007 NOSIG
Couverture nuageuse : Few Clouds 3600 ft Mostly Cloudy 13000 ft Overcast 19000 ft
Traduc : Partly cloudy 700 ft
Pression de 29.74 inHg (1007 hPa)
Humidité : 73%
Température : 72°F (22°C)
Point de rosée : 63°F (17°C)
Vent de SSW at 14 mph (22 km/h)
Visibilité : 6 miles (10 km)
?>

 


   Weather Underground PWS IBRETAGN39      Weather Underground PWS IBRETAGN39Retour Météo-Laillé adhérent de Météo-Bretagne et d'Infoclimat. Données mises à jour en temps réel via Météolink Climatologie réalisée sous Wswin et GraphWeather.

Affichage prévisions météo de WeatherUnderground via script PHP de Saratoga.

Copyright 2012-2021


compteur